createdAt,value
2022-12-14T00:00:14.636Z,14.48
2022-12-14T00:03:04.104Z,14.47
2022-12-14T00:05:53.245Z,14.41
2022-12-14T00:08:41.509Z,14.41
2022-12-14T00:11:32.546Z,14.43
2022-12-14T00:14:14.959Z,14.33
2022-12-14T00:17:03.190Z,14.30
2022-12-14T00:19:44.953Z,14.25
2022-12-14T00:22:31.122Z,14.26
2022-12-14T00:25:20.969Z,14.32
2022-12-14T00:28:03.152Z,14.29
2022-12-14T00:30:56.622Z,14.27
2022-12-14T00:33:47.357Z,14.22
2022-12-14T00:36:30.022Z,14.10
2022-12-14T00:39:12.150Z,14.19
2022-12-14T00:42:01.003Z,14.13
2022-12-14T00:44:49.859Z,14.10
2022-12-14T00:47:40.927Z,14.03
2022-12-14T00:50:29.870Z,14.12
2022-12-14T00:53:19.009Z,14.19
2022-12-14T00:56:07.506Z,14.30
2022-12-14T00:58:56.010Z,14.17
2022-12-14T01:01:38.334Z,14.19
2022-12-14T01:04:26.982Z,14.18
2022-12-14T01:07:15.342Z,14.33
2022-12-14T01:09:56.952Z,14.30
2022-12-14T01:12:39.238Z,14.27
2022-12-14T01:15:27.994Z,14.26
2022-12-14T01:18:16.854Z,14.28
2022-12-14T01:20:59.236Z,14.27
2022-12-14T01:23:48.907Z,14.27
2022-12-14T01:26:40.796Z,14.13
2022-12-14T01:29:23.188Z,14.10
2022-12-14T01:32:12.088Z,14.03
2022-12-14T01:35:00.831Z,13.98
2022-12-14T01:37:49.994Z,14.05
2022-12-14T01:40:38.955Z,13.98
2022-12-14T01:43:22.247Z,14.00
2022-12-14T01:46:12.103Z,13.94
2022-12-14T01:48:57.243Z,13.87
2022-12-14T01:51:46.911Z,13.85
2022-12-14T01:54:30.228Z,14.08
2022-12-14T01:57:19.890Z,14.06
2022-12-14T02:00:07.459Z,14.14
2022-12-14T02:03:20.980Z,14.27
2022-12-14T02:06:19.180Z,14.24
2022-12-14T02:09:07.805Z,14.29
2022-12-14T02:11:53.205Z,14.22
2022-12-14T02:14:41.999Z,14.36
2022-12-14T02:17:24.193Z,14.38
2022-12-14T02:20:13.960Z,14.52
2022-12-14T02:23:14.667Z,14.52
2022-12-14T02:26:38.805Z,14.57
2022-12-14T02:29:39.954Z,14.54
2022-12-14T02:32:37.858Z,14.51
2022-12-14T02:35:36.988Z,14.45
2022-12-14T02:38:43.034Z,14.61
2022-12-14T02:41:45.984Z,14.68
2022-12-14T02:44:43.507Z,14.81
2022-12-14T02:48:14.945Z,15.07
2022-12-14T02:51:03.271Z,15.13
2022-12-14T02:54:23.929Z,15.22
2022-12-14T02:57:31.208Z,15.29
2022-12-14T03:00:20.933Z,15.24
2022-12-14T03:03:05.863Z,15.47
2022-12-14T03:05:54.951Z,15.59
2022-12-14T03:08:46.278Z,15.75
2022-12-14T03:11:33.345Z,15.78
2022-12-14T03:14:48.829Z,15.93
2022-12-14T03:17:35.480Z,16.09
2022-12-14T03:20:29.928Z,16.10
2022-12-14T03:23:24.084Z,16.43
2022-12-14T03:26:18.210Z,17.03
2022-12-14T03:29:14.832Z,17.49
2022-12-14T03:32:09.850Z,17.94
2022-12-14T03:34:59.207Z,18.68
2022-12-14T03:37:56.019Z,19.54
2022-12-14T03:41:04.163Z,20.18
2022-12-14T03:44:15.994Z,20.52
2022-12-14T03:47:29.667Z,21.28
2022-12-14T03:50:24.900Z,21.88
2022-12-14T03:53:12.952Z,22.40
2022-12-14T03:56:25.089Z,22.55
2022-12-14T03:59:17.592Z,22.62
2022-12-14T04:02:29.059Z,23.10
2022-12-14T04:05:29.189Z,23.32
2022-12-14T04:08:20.781Z,23.33
2022-12-14T04:11:24.707Z,23.57
2022-12-14T04:14:38.990Z,23.05
2022-12-14T04:17:46.739Z,22.98
2022-12-14T04:20:58.856Z,23.23
2022-12-14T04:24:15.255Z,23.62
2022-12-14T04:27:06.251Z,23.39
2022-12-14T04:30:04.027Z,23.05
2022-12-14T04:32:49.332Z,22.63
2022-12-14T04:35:48.872Z,23.04
2022-12-14T04:38:42.353Z,22.98
2022-12-14T04:41:37.885Z,22.78
2022-12-14T04:44:46.828Z,22.30
2022-12-14T04:47:42.025Z,22.00
2022-12-14T04:50:37.504Z,21.74
2022-12-14T04:53:31.933Z,21.94
2022-12-14T04:56:37.930Z,22.06
2022-12-14T04:59:27.835Z,21.60
2022-12-14T05:02:57.901Z,21.60
2022-12-14T05:06:15.248Z,21.10
2022-12-14T05:09:24.979Z,21.24
2022-12-14T05:12:21.611Z,21.09
2022-12-14T05:15:19.855Z,21.19
2022-12-14T05:18:13.203Z,21.56
2022-12-14T05:20:55.852Z,21.27
2022-12-14T05:23:44.834Z,21.24
2022-12-14T05:26:34.176Z,21.16
2022-12-14T05:29:23.396Z,21.05
2022-12-14T05:32:04.816Z,21.52
2022-12-14T05:34:47.112Z,21.43
2022-12-14T05:37:35.931Z,21.52
2022-12-14T05:40:18.387Z,21.76
2022-12-14T05:43:06.935Z,21.79
2022-12-14T05:45:55.232Z,22.08
2022-12-14T05:48:38.091Z,22.88
2022-12-14T05:51:20.317Z,23.43
2022-12-14T05:54:08.926Z,23.06
2022-12-14T05:56:50.902Z,23.20
2022-12-14T05:59:42.916Z,23.45
2022-12-14T06:02:31.910Z,23.36
2022-12-14T06:05:20.910Z,23.36
2022-12-14T06:08:03.763Z,23.63
2022-12-14T06:10:52.976Z,23.42
2022-12-14T06:13:35.415Z,23.52
2022-12-14T06:16:28.875Z,23.77
2022-12-14T06:19:19.951Z,23.56
2022-12-14T06:22:02.384Z,23.93
2022-12-14T06:24:50.866Z,23.29
2022-12-14T06:27:39.266Z,23.73
2022-12-14T06:30:21.931Z,23.65
2022-12-14T06:33:10.156Z,23.73
2022-12-14T06:35:53.961Z,24.08
2022-12-14T06:38:43.824Z,24.07
2022-12-14T06:41:29.331Z,24.23
2022-12-14T06:44:22.072Z,23.98
2022-12-14T06:47:11.271Z,24.02
2022-12-14T06:49:52.827Z,23.96
2022-12-14T06:52:41.926Z,24.34
2022-12-14T06:55:30.765Z,24.42
2022-12-14T06:58:24.863Z,24.14
2022-12-14T07:01:12.319Z,24.27
2022-12-14T07:04:03.975Z,24.51
2022-12-14T07:06:48.161Z,24.36
2022-12-14T07:09:36.954Z,24.45
2022-12-14T07:12:19.235Z,24.39
2022-12-14T07:15:07.880Z,24.07
2022-12-14T07:17:50.287Z,24.36
2022-12-14T07:20:38.909Z,24.57
2022-12-14T07:23:28.174Z,23.79
2022-12-14T07:26:11.079Z,23.80
2022-12-14T07:29:00.825Z,24.06
2022-12-14T07:31:43.210Z,23.83
2022-12-14T07:34:31.784Z,24.19
2022-12-14T07:37:21.907Z,24.26
2022-12-14T07:40:05.554Z,24.33
2022-12-14T07:42:57.995Z,24.46
2022-12-14T07:45:52.718Z,24.39
2022-12-14T07:48:42.957Z,24.42
2022-12-14T07:51:28.382Z,24.26
2022-12-14T07:54:16.952Z,23.96
2022-12-14T07:56:59.392Z,24.21
2022-12-14T07:59:49.874Z,24.07
2022-12-14T08:02:35.336Z,24.04
2022-12-14T08:05:23.767Z,24.40
2022-12-14T08:08:06.187Z,24.27
2022-12-14T08:10:56.823Z,24.03
2022-12-14T08:13:40.254Z,23.86
2022-12-14T08:16:28.933Z,24.36
2022-12-14T08:19:11.170Z,24.12
2022-12-14T08:21:59.807Z,24.22
2022-12-14T08:24:42.254Z,24.26
2022-12-14T08:27:38.976Z,23.89
2022-12-14T08:30:21.199Z,24.04
2022-12-14T08:33:09.850Z,23.98
2022-12-14T08:35:52.646Z,24.11
2022-12-14T08:38:41.857Z,24.13
2022-12-14T08:41:30.811Z,24.27
2022-12-14T08:44:19.738Z,24.40
2022-12-14T08:47:08.991Z,24.38
2022-12-14T08:49:51.181Z,23.99
2022-12-14T08:52:39.985Z,24.06
2022-12-14T08:55:32.540Z,23.91
2022-12-14T08:58:23.925Z,24.26
2022-12-14T09:01:15.506Z,23.95
2022-12-14T09:04:05.201Z,23.86
2022-12-14T09:06:47.231Z,23.64
2022-12-14T09:09:35.939Z,23.83
2022-12-14T09:12:18.157Z,23.99
2022-12-14T09:15:06.834Z,23.90
2022-12-14T09:17:49.895Z,24.04
2022-12-14T09:20:38.837Z,24.07
2022-12-14T09:23:21.298Z,24.04
2022-12-14T09:26:10.826Z,23.88
2022-12-14T09:29:04.202Z,24.00
2022-12-14T09:31:52.939Z,24.05
2022-12-14T09:34:35.332Z,24.03
2022-12-14T09:37:23.833Z,23.98
2022-12-14T09:40:06.136Z,23.86
2022-12-14T09:43:15.852Z,23.79
2022-12-14T09:46:17.405Z,23.96
2022-12-14T09:49:00.900Z,23.67
2022-12-14T09:51:49.280Z,23.69
2022-12-14T09:54:35.818Z,23.76
2022-12-14T09:57:38.830Z,23.68
2022-12-14T10:00:28.327Z,23.69
2022-12-14T10:03:57.950Z,23.81
2022-12-14T10:06:50.241Z,23.60
2022-12-14T10:10:04.713Z,23.44
2022-12-14T10:12:56.181Z,23.31
2022-12-14T10:15:58.905Z,23.25
2022-12-14T10:19:00.929Z,23.13
2022-12-14T10:21:58.877Z,23.04
2022-12-14T10:25:09.211Z,23.08
2022-12-14T10:28:11.474Z,23.00
2022-12-14T10:30:56.176Z,22.97
2022-12-14T10:33:50.926Z,23.04
2022-12-14T10:37:01.389Z,22.96
2022-12-14T10:40:17.524Z,22.70
2022-12-14T10:43:30.869Z,22.91
2022-12-14T10:46:42.324Z,22.83
2022-12-14T10:49:23.944Z,22.71
2022-12-14T10:52:20.143Z,22.70
2022-12-14T10:55:10.911Z,22.65
2022-12-14T10:58:00.226Z,22.45
2022-12-14T11:00:45.960Z,22.48
2022-12-14T11:03:36.237Z,22.41
2022-12-14T11:06:27.002Z,22.28
2022-12-14T11:09:29.183Z,22.23
2022-12-14T11:12:16.040Z,22.23
2022-12-14T11:15:08.003Z,22.28
2022-12-14T11:17:59.073Z,22.29
2022-12-14T11:21:01.461Z,22.21
2022-12-14T11:23:58.898Z,21.98
2022-12-14T11:26:51.733Z,21.79
2022-12-14T11:29:45.897Z,21.75
2022-12-14T11:32:28.128Z,21.76
2022-12-14T11:35:16.867Z,21.64
2022-12-14T11:38:03.197Z,21.50
2022-12-14T11:40:51.943Z,21.55
2022-12-14T11:43:46.884Z,21.44
2022-12-14T11:46:41.134Z,21.52
2022-12-14T11:49:32.277Z,21.44
2022-12-14T11:52:14.857Z,21.31
2022-12-14T11:55:03.861Z,21.20
2022-12-14T11:58:00.762Z,21.20
2022-12-14T12:01:13.986Z,21.13
2022-12-14T12:04:02.471Z,21.00
2022-12-14T12:06:50.846Z,20.80
2022-12-14T12:09:36.153Z,20.65
2022-12-14T12:12:28.965Z,20.51
2022-12-14T12:15:18.798Z,20.35
2022-12-14T12:18:12.828Z,20.24
2022-12-14T12:21:03.156Z,20.15
2022-12-14T12:24:06.866Z,19.98
2022-12-14T12:27:01.229Z,19.95
2022-12-14T12:30:27.789Z,19.81
2022-12-14T12:33:52.840Z,19.66
2022-12-14T12:36:57.090Z,19.55
2022-12-14T12:39:54.920Z,19.42
2022-12-14T12:42:59.026Z,19.40
2022-12-14T12:45:50.950Z,19.40
2022-12-14T12:48:51.186Z,19.19
2022-12-14T12:51:50.828Z,19.16
2022-12-14T12:54:45.300Z,19.03
2022-12-14T12:57:28.747Z,18.97
2022-12-14T13:00:26.877Z,19.04
2022-12-14T13:03:20.037Z,18.87
2022-12-14T13:06:16.233Z,18.91
2022-12-14T13:09:11.847Z,18.69
2022-12-14T13:12:01.290Z,18.59
2022-12-14T13:14:52.866Z,18.66
2022-12-14T13:17:52.834Z,18.57
2022-12-14T13:20:42.865Z,18.54
2022-12-14T13:23:44.830Z,18.39
2022-12-14T13:27:03.809Z,18.38
2022-12-14T13:30:05.376Z,18.39
2022-12-14T13:32:59.934Z,18.34
2022-12-14T13:35:42.373Z,18.32
2022-12-14T13:38:58.940Z,18.23
2022-12-14T13:42:11.289Z,18.26
2022-12-14T13:45:10.948Z,18.21
2022-12-14T13:47:57.159Z,18.22
2022-12-14T13:50:52.944Z,18.22
2022-12-14T13:53:50.713Z,18.13
2022-12-14T13:56:46.740Z,18.05
2022-12-14T13:59:39.307Z,18.06
2022-12-14T14:02:40.203Z,17.96
2022-12-14T14:05:25.287Z,17.89
2022-12-14T14:08:41.726Z,17.87
2022-12-14T14:11:42.205Z,17.83
2022-12-14T14:15:00.780Z,17.85
2022-12-14T14:18:05.921Z,17.88
2022-12-14T14:20:58.630Z,17.71
2022-12-14T14:23:49.824Z,17.76
2022-12-14T14:26:42.327Z,17.79
2022-12-14T14:29:34.794Z,17.72
2022-12-14T14:32:53.999Z,17.67
2022-12-14T14:35:43.774Z,17.61
2022-12-14T14:38:36.212Z,17.56
2022-12-14T14:41:22.933Z,17.55
2022-12-14T14:44:09.257Z,17.50
2022-12-14T14:47:07.426Z,17.49
2022-12-14T14:50:08.812Z,17.47
2022-12-14T14:53:19.129Z,17.38
2022-12-14T14:56:38.867Z,17.31
2022-12-14T14:59:27.864Z,17.31
2022-12-14T15:02:29.992Z,17.45
2022-12-14T15:08:33.320Z,17.39
2022-12-14T15:11:31.849Z,17.39
2022-12-14T15:14:33.286Z,17.28
2022-12-14T15:17:33.826Z,17.33
2022-12-14T15:20:30.988Z,17.21
2022-12-14T15:23:23.915Z,17.12
2022-12-14T15:26:17.228Z,17.16
2022-12-14T15:29:07.885Z,17.12
2022-12-14T15:31:58.923Z,17.05
2022-12-14T15:35:13.869Z,17.03
2022-12-14T15:38:03.149Z,16.99
2022-12-14T15:41:02.768Z,17.08
2022-12-14T15:43:55.048Z,17.00
2022-12-14T15:46:48.878Z,16.89
2022-12-14T15:49:31.187Z,16.87
2022-12-14T15:52:19.919Z,16.85
2022-12-14T15:55:08.911Z,16.88
2022-12-14T15:57:51.386Z,16.90
2022-12-14T16:00:40.929Z,16.79
2022-12-14T16:03:43.521Z,16.80
2022-12-14T16:06:34.872Z,16.77
2022-12-14T16:09:36.249Z,16.66
2022-12-14T16:12:45.172Z,16.62
2022-12-14T16:15:42.705Z,16.59
2022-12-14T16:18:32.776Z,16.61
2022-12-14T16:21:36.873Z,16.58
2022-12-14T16:24:32.119Z,16.54
2022-12-14T16:27:26.812Z,16.42
2022-12-14T16:30:26.306Z,16.50
2022-12-14T16:33:24.749Z,16.46
2022-12-14T16:36:19.254Z,16.28
2022-12-14T16:39:07.796Z,16.25
2022-12-14T16:41:53.023Z,16.25
2022-12-14T16:44:44.848Z,16.28
2022-12-14T16:48:02.912Z,16.32
2022-12-14T16:50:58.091Z,16.35
2022-12-14T16:53:41.866Z,16.15
2022-12-14T16:56:27.340Z,16.03
2022-12-14T16:59:21.962Z,16.14
2022-12-14T17:02:17.604Z,16.22
2022-12-14T17:05:00.812Z,16.07
2022-12-14T17:07:48.214Z,16.07
2022-12-14T17:10:40.878Z,16.18
2022-12-14T17:13:23.212Z,16.01
2022-12-14T17:16:19.850Z,15.93
2022-12-14T17:19:03.862Z,15.89
2022-12-14T17:21:52.893Z,15.77
2022-12-14T17:24:45.804Z,15.92
2022-12-14T17:27:37.854Z,15.83
2022-12-14T17:30:29.175Z,15.96
2022-12-14T17:33:11.899Z,15.82
2022-12-14T17:35:56.237Z,15.89
2022-12-14T17:38:46.845Z,15.84
2022-12-14T17:41:29.283Z,15.70
2022-12-14T17:44:17.852Z,15.61
2022-12-14T17:47:13.709Z,15.59
2022-12-14T17:50:02.805Z,15.55
2022-12-14T17:52:45.124Z,15.55
2022-12-14T17:55:37.833Z,15.60
2022-12-14T17:58:27.797Z,15.55
2022-12-14T18:01:11.227Z,15.64
2022-12-14T18:03:59.945Z,15.51
2022-12-14T18:06:49.285Z,15.64
2022-12-14T18:09:31.832Z,15.43
2022-12-14T18:12:25.179Z,15.57
2022-12-14T18:15:07.273Z,15.55
2022-12-14T18:17:56.848Z,15.52
2022-12-14T18:20:46.771Z,15.43
2022-12-14T18:23:39.092Z,15.59
2022-12-14T18:26:27.921Z,15.47
2022-12-14T18:29:17.570Z,15.46
2022-12-14T18:32:00.974Z,15.31
2022-12-14T18:34:49.138Z,15.21
2022-12-14T18:37:32.889Z,15.11
2022-12-14T18:40:17.174Z,15.19
2022-12-14T18:43:05.945Z,15.22
2022-12-14T18:46:10.703Z,15.32
2022-12-14T18:49:00.857Z,15.41
2022-12-14T18:51:43.309Z,15.38
2022-12-14T18:54:31.931Z,15.25
2022-12-14T18:57:14.205Z,15.31
2022-12-14T19:00:02.896Z,15.27
2022-12-14T19:02:51.966Z,15.21
2022-12-14T19:05:34.191Z,15.13
2022-12-14T19:08:23.763Z,14.93
2022-12-14T19:11:36.233Z,14.97
2022-12-14T19:14:18.793Z,14.84
2022-12-14T19:17:14.996Z,15.13
2022-12-14T19:20:05.289Z,15.00
2022-12-14T19:22:55.844Z,14.90
2022-12-14T19:25:45.463Z,14.88
2022-12-14T19:28:32.921Z,14.77
2022-12-14T19:31:24.202Z,14.78
2022-12-14T19:34:09.491Z,14.78
2022-12-14T19:36:53.047Z,14.67
2022-12-14T19:39:43.413Z,14.68
2022-12-14T19:42:34.538Z,14.72
2022-12-14T19:45:19.101Z,14.66
2022-12-14T19:48:12.871Z,14.67
2022-12-14T19:50:55.723Z,14.71
2022-12-14T19:53:45.839Z,14.82
2022-12-14T19:56:28.168Z,14.72
2022-12-14T19:59:16.858Z,14.74
2022-12-14T20:02:06.059Z,14.77
2022-12-14T20:04:54.183Z,14.72
2022-12-14T20:07:43.395Z,14.70
2022-12-14T20:10:33.138Z,14.81
2022-12-14T20:13:15.809Z,14.83
2022-12-14T20:16:06.252Z,14.87
2022-12-14T20:18:48.939Z,14.75
2022-12-14T20:21:37.457Z,14.85
2022-12-14T20:24:21.845Z,14.96
2022-12-14T20:27:05.433Z,14.90
2022-12-14T20:29:55.856Z,14.95
2022-12-14T20:32:38.910Z,15.05
2022-12-14T20:35:28.846Z,15.02
2022-12-14T20:38:11.260Z,15.02
2022-12-14T20:40:59.935Z,15.00
2022-12-14T20:43:45.102Z,15.00
2022-12-14T20:46:42.898Z,15.02
2022-12-14T20:49:33.938Z,14.97
2022-12-14T20:52:15.785Z,14.94
2022-12-14T20:54:58.015Z,14.90
2022-12-14T20:57:46.723Z,14.85
2022-12-14T21:00:36.152Z,14.88
2022-12-14T21:03:18.819Z,14.97
2022-12-14T21:06:09.044Z,15.08
2022-12-14T21:09:09.782Z,15.01
2022-12-14T21:12:17.744Z,14.99
2022-12-14T21:15:04.393Z,14.91
2022-12-14T21:17:52.736Z,14.90
2022-12-14T21:20:41.657Z,14.85
2022-12-14T21:23:30.241Z,14.85
2022-12-14T21:26:13.691Z,14.72
2022-12-14T21:29:03.045Z,14.75
2022-12-14T21:31:46.779Z,14.81
2022-12-14T21:34:29.206Z,14.75
2022-12-14T21:37:10.782Z,14.66
2022-12-14T21:39:55.269Z,14.62
2022-12-14T21:42:44.721Z,14.61
2022-12-14T21:45:27.229Z,14.45
2022-12-14T21:48:16.650Z,14.58
2022-12-14T21:50:59.010Z,14.54
2022-12-14T21:54:05.678Z,14.61
2022-12-14T21:57:08.662Z,14.54
2022-12-14T21:59:57.818Z,14.54
2022-12-14T22:02:54.911Z,14.46
2022-12-14T22:05:46.684Z,14.47
2022-12-14T22:08:35.719Z,14.38
2022-12-14T22:11:24.121Z,14.39
2022-12-14T22:14:06.816Z,14.36
2022-12-14T22:16:56.807Z,14.52
2022-12-14T22:19:46.807Z,14.42
2022-12-14T22:22:35.723Z,14.34
2022-12-14T22:25:18.060Z,14.33
2022-12-14T22:28:06.706Z,14.27
2022-12-14T22:30:55.782Z,14.32
2022-12-14T22:33:37.921Z,14.25
2022-12-14T22:36:27.171Z,14.19
2022-12-14T22:39:10.359Z,14.15
2022-12-14T22:41:58.762Z,14.08
2022-12-14T22:44:41.400Z,14.18
2022-12-14T22:47:30.758Z,14.08
2022-12-14T22:50:13.287Z,14.04
2022-12-14T22:53:01.760Z,14.00
2022-12-14T22:55:46.063Z,13.97
2022-12-14T22:58:40.831Z,13.97
2022-12-14T23:01:30.110Z,13.96
2022-12-14T23:04:14.887Z,13.90
2022-12-14T23:06:57.024Z,13.99
2022-12-14T23:10:03.867Z,13.93
2022-12-14T23:13:10.302Z,14.06
2022-12-14T23:16:10.719Z,14.07
2022-12-14T23:19:17.752Z,14.28
2022-12-14T23:22:18.478Z,14.32
2022-12-14T23:25:25.701Z,14.19
2022-12-14T23:28:33.682Z,14.11
2022-12-14T23:31:34.198Z,14.30
2022-12-14T23:34:40.701Z,14.16
2022-12-14T23:37:41.096Z,14.08
2022-12-14T23:40:47.698Z,14.14
2022-12-14T23:43:48.301Z,14.13
2022-12-14T23:46:54.671Z,14.12
2022-12-14T23:50:01.822Z,14.19
2022-12-14T23:53:02.480Z,14.08
2022-12-14T23:56:09.749Z,14.00
2022-12-14T23:59:13.924Z,14.03
